Time;durP1;ratioP1;P1;durP2;ratioP2;P2;SDS_P1;SDS_P2;PMS_P1;PMS_P2;Temp;Humidity;BMP_temperature;BMP_pressure;BME280_temperature;BME280_humidity;BME280_pressure;Samples;Min_cycle;Max_cycle;Signal;HPM_P1;HPM_P2
2021/03/16 00:01:07;;;;;;;0.70;0.40;;;6.10;99.90;;;;;;5075060;28;20499;-57
2021/03/16 00:03:34;;;;;;;0.80;0.40;;;6.00;99.90;;;;;;5074845;28;20772;-58
2021/03/16 00:06:00;;;;;;;1.00;0.40;;;6.10;99.90;;;;;;5072555;28;20419;-59
2021/03/16 00:08:27;;;;;;;0.80;0.40;;;6.10;99.90;;;;;;5074906;28;20497;-59
2021/03/16 00:10:55;;;;;;;1.40;0.40;;;6.20;99.90;;;;;;5074376;28;20775;-59
2021/03/16 00:13:21;;;;;;;1.02;0.40;;;6.30;99.90;;;;;;5075538;28;20419;-58
2021/03/16 00:15:48;;;;;;;0.60;0.40;;;6.40;99.90;;;;;;5076334;28;20434;-59
2021/03/16 00:18:15;;;;;;;0.70;0.30;;;6.20;99.90;;;;;;5075565;28;20431;-59
2021/03/16 00:20:42;;;;;;;1.30;0.40;;;6.20;99.90;;;;;;5076843;28;20434;-59
2021/03/16 00:23:09;;;;;;;2.80;0.40;;;6.20;99.90;;;;;;5076517;28;20800;-59
2021/03/16 00:25:36;;;;;;;1.92;0.40;;;6.20;99.90;;;;;;5077425;28;20438;-57
2021/03/16 00:28:03;;;;;;;0.88;0.40;;;6.40;99.90;;;;;;5077566;28;20420;-58
2021/03/16 00:30:29;;;;;;;1.27;0.40;;;6.40;99.90;;;;;;5077815;28;20757;-56
2021/03/16 00:32:56;;;;;;;1.00;0.40;;;6.40;99.90;;;;;;5077512;28;20423;-58
2021/03/16 00:35:23;;;;;;;1.60;0.38;;;6.50;99.90;;;;;;5077458;28;20434;-57
2021/03/16 00:37:49;;;;;;;1.17;0.40;;;6.40;99.90;;;;;;5076853;28;20512;-56
2021/03/16 00:40:16;;;;;;;1.40;0.30;;;6.30;99.90;;;;;;5077759;28;20420;-58
2021/03/16 00:42:43;;;;;;;1.40;0.40;;;6.30;99.90;;;;;;5077181;28;20426;-57
2021/03/16 00:45:11;;;;;;;0.63;0.30;;;6.00;99.90;;;;;;5077719;28;20430;-58
2021/03/16 00:47:38;;;;;;;2.63;0.50;;;5.80;99.90;;;;;;5077104;28;20507;-58
2021/03/16 00:50:06;;;;;;;0.95;0.40;;;5.90;99.90;;;;;;5077441;28;20432;-58
2021/03/16 00:52:32;;;;;;;1.05;0.35;;;5.90;99.90;;;;;;5077282;28;20510;-58
2021/03/16 00:54:59;;;;;;;1.00;0.40;;;5.80;99.90;;;;;;5076334;28;20427;-59
2021/03/16 00:57:27;;;;;;;0.60;0.40;;;5.80;99.90;;;;;;5077059;28;20424;-59
2021/03/16 00:59:54;;;;;;;0.68;0.40;;;5.90;99.90;;;;;;5077030;28;20526;-59
2021/03/16 01:02:21;;;;;;;0.70;0.40;;;5.80;99.90;;;;;;5076965;28;20526;-58
2021/03/16 01:04:47;;;;;;;1.10;0.40;;;5.70;99.90;;;;;;5077086;28;20634;-58
2021/03/16 01:07:14;;;;;;;2.63;0.40;;;5.70;99.90;;;;;;5076886;28;20430;-59
2021/03/16 01:09:43;;;;;;;1.50;0.40;;;5.60;99.90;;;;;;5076839;28;20712;-59
2021/03/16 01:12:10;;;;;;;1.70;0.40;;;5.50;99.90;;;;;;5077017;28;20909;-59
2021/03/16 01:14:36;;;;;;;1.10;0.40;;;5.70;99.90;;;;;;5076570;28;20517;-59
2021/03/16 01:17:04;;;;;;;1.50;0.40;;;5.80;99.90;;;;;;5076502;28;20426;-59
2021/03/16 01:19:30;;;;;;;1.73;0.50;;;5.90;99.90;;;;;;5076714;28;20442;-59
2021/03/16 01:21:57;;;;;;;2.20;0.40;;;6.00;99.90;;;;;;5076388;28;20492;-59
2021/03/16 01:24:23;;;;;;;2.30;0.40;;;5.90;99.90;;;;;;5076188;28;20533;-59
2021/03/16 01:26:50;;;;;;;0.80;0.40;;;5.80;99.90;;;;;;5076433;28;20514;-58
2021/03/16 01:29:16;;;;;;;0.73;0.40;;;5.80;99.90;;;;;;5076295;28;20426;-59
2021/03/16 01:31:42;;;;;;;0.85;0.40;;;5.70;99.90;;;;;;5076650;28;20506;-59
2021/03/16 01:34:09;;;;;;;2.20;0.35;;;5.70;99.90;;;;;;5076338;28;20423;-59
2021/03/16 01:36:36;;;;;;;1.30;0.40;;;5.70;99.90;;;;;;5076204;28;20870;-59
2021/03/16 01:39:03;;;;;;;0.85;0.40;;;5.70;99.90;;;;;;5076343;28;20432;-58
2021/03/16 01:41:29;;;;;;;1.10;0.40;;;5.70;99.90;;;;;;5076575;28;20416;-58
2021/03/16 01:43:56;;;;;;;0.88;0.40;;;5.70;99.90;;;;;;5076329;28;20831;-58
2021/03/16 01:46:22;;;;;;;0.90;0.30;;;5.80;99.90;;;;;;5076347;28;20424;-58
2021/03/16 01:48:49;;;;;;;1.60;0.38;;;5.60;99.90;;;;;;5076520;28;20470;-58
2021/03/16 01:51:18;;;;;;;0.60;0.40;;;5.50;99.90;;;;;;5076295;28;20426;-58
2021/03/16 01:53:45;;;;;;;1.60;0.50;;;5.50;99.90;;;;;;5075878;28;20966;-58
2021/03/16 01:56:13;;;;;;;2.00;0.60;;;5.60;99.90;;;;;;5075914;28;20522;-58
2021/03/16 01:58:41;;;;;;;1.30;0.50;;;5.50;99.90;;;;;;5075627;28;20521;-58
2021/03/16 02:01:07;;;;;;;1.40;0.40;;;5.60;99.90;;;;;;5074146;28;20506;-58
2021/03/16 02:03:33;;;;;;;1.20;0.43;;;5.70;99.90;;;;;;5073861;28;20902;-58
2021/03/16 02:06:03;;;;;;;1.50;0.50;;;5.70;99.90;;;;;;5073978;28;20420;-58
2021/03/16 02:08:40;;;;;;;1.80;0.50;;;5.70;99.90;;;;;;5073966;28;20420;-58
2021/03/16 02:11:16;;;;;;;1.30;0.50;;;5.80;99.90;;;;;;5073350;28;20518;-58
2021/03/16 02:13:52;;;;;;;1.40;0.40;;;5.70;99.90;;;;;;5074873;28;20416;-58
2021/03/16 02:16:26;;;;;;;1.40;0.50;;;5.70;99.90;;;;;;5074761;28;20420;-58
2021/03/16 02:18:56;;;;;;;1.80;0.50;;;5.60;99.90;;;;;;5075359;28;20431;-58
2021/03/16 02:21:26;;;;;;;2.30;0.50;;;5.60;99.90;;;;;;5075697;28;20416;-58
2021/03/16 02:24:31;;;;;;;1.23;0.50;;;5.60;99.90;;;;;;5075498;28;20518;-59
2021/03/16 02:27:08;;;;;;;1.10;0.50;;;5.50;99.90;;;;;;5075023;28;20855;-59
2021/03/16 02:29:42;;;;;;;1.17;0.40;;;5.50;99.90;;;;;;5074895;28;20447;-58
2021/03/16 02:32:13;;;;;;;2.80;0.50;;;5.60;99.90;;;;;;5075069;28;20956;-58
2021/03/16 02:34:43;;;;;;;2.00;0.50;;;5.50;99.90;;;;;;5075366;28;20498;-58
2021/03/16 02:37:11;;;;;;;1.40;0.50;;;5.50;99.90;;;;;;5075215;28;20506;-58
2021/03/16 02:39:38;;;;;;;1.55;0.50;;;5.40;99.90;;;;;;5075229;28;20862;-57
2021/03/16 02:42:08;;;;;;;2.45;0.43;;;5.40;99.90;;;;;;5075066;28;20838;-59
2021/03/16 02:44:36;;;;;;;1.10;0.40;;;5.40;99.90;;;;;;5075174;28;20427;-58
2021/03/16 02:47:04;;;;;;;0.80;0.40;;;5.50;99.90;;;;;;5075117;28;20424;-58
2021/03/16 02:49:32;;;;;;;2.33;0.60;;;5.50;99.90;;;;;;5074863;28;20869;-58
2021/03/16 02:51:59;;;;;;;2.00;0.50;;;5.50;99.90;;;;;;5075365;28;20831;-58
2021/03/16 02:54:26;;;;;;;2.20;0.50;;;5.50;99.90;;;;;;5074642;28;20481;-58
2021/03/16 02:56:54;;;;;;;1.10;0.40;;;5.40;99.90;;;;;;5074776;28;20881;-58
2021/03/16 02:59:23;;;;;;;1.30;0.50;;;5.40;99.90;;;;;;5074887;28;20557;-58
2021/03/16 03:01:51;;;;;;;1.50;0.45;;;5.30;99.90;;;;;;5075006;28;20426;-58
2021/03/16 03:04:18;;;;;;;1.10;0.52;;;5.40;99.90;;;;;;5074722;28;20878;-58
2021/03/16 03:06:45;;;;;;;1.48;0.50;;;5.40;99.90;;;;;;5074684;28;20500;-58
2021/03/16 03:09:13;;;;;;;1.02;0.50;;;5.60;99.90;;;;;;5074641;28;20518;-58
2021/03/16 03:11:39;;;;;;;1.60;0.43;;;5.50;99.90;;;;;;5074686;28;20419;-58
2021/03/16 03:14:07;;;;;;;1.10;0.47;;;5.50;99.90;;;;;;5074672;28;20514;-59
2021/03/16 03:16:34;;;;;;;0.68;0.40;;;5.50;99.90;;;;;;5075084;28;20507;-57
2021/03/16 03:19:01;;;;;;;1.20;0.40;;;5.50;99.90;;;;;;5074111;28;20441;-58
2021/03/16 03:21:33;;;;;;;0.60;0.40;;;5.40;99.90;;;;;;5074602;28;20509;-58
2021/03/16 03:24:04;;;;;;;2.38;0.50;;;5.40;99.90;;;;;;5074386;28;20837;-58
2021/03/16 03:26:36;;;;;;;0.60;0.40;;;5.30;99.90;;;;;;5074518;28;20415;-57
2021/03/16 03:29:04;;;;;;;0.80;0.40;;;5.30;99.90;;;;;;5074505;28;20723;-58
2021/03/16 03:31:33;;;;;;;1.45;0.40;;;5.30;99.90;;;;;;5073932;28;20523;-58
2021/03/16 03:34:01;;;;;;;1.10;0.40;;;5.20;99.90;;;;;;5074618;28;20471;-58
2021/03/16 03:36:29;;;;;;;2.13;0.50;;;5.20;99.90;;;;;;5074012;28;20510;-58
2021/03/16 03:38:56;;;;;;;1.92;0.40;;;5.30;99.90;;;;;;5073646;28;20438;-58
2021/03/16 03:41:26;;;;;;;1.40;0.40;;;5.20;99.90;;;;;;5074464;28;20494;-58
2021/03/16 03:43:53;;;;;;;1.40;0.40;;;5.00;99.90;;;;;;5073756;28;20519;-58
2021/03/16 03:46:21;;;;;;;1.52;0.40;;;5.00;99.90;;;;;;5074630;28;20455;-58
2021/03/16 03:48:48;;;;;;;1.40;0.40;;;5.10;99.90;;;;;;5074427;28;20908;-58
2021/03/16 03:51:18;;;;;;;1.60;0.40;;;5.00;99.90;;;;;;5074149;28;20809;-57
2021/03/16 03:53:46;;;;;;;1.60;0.50;;;4.90;99.90;;;;;;5074379;28;20427;-57
2021/03/16 03:56:12;;;;;;;1.90;0.30;;;5.00;99.90;;;;;;5073551;28;20478;-58
2021/03/16 03:58:40;;;;;;;3.00;0.50;;;5.10;99.90;;;;;;5073261;28;20431;-58
2021/03/16 04:01:08;;;;;;;1.08;0.40;;;5.10;99.90;;;;;;5073689;28;20472;-57
2021/03/16 04:03:36;;;;;;;1.30;0.30;;;5.00;99.90;;;;;;5073946;28;20841;-58
2021/03/16 04:06:03;;;;;;;1.10;0.30;;;5.00;99.90;;;;;;5074078;28;20416;-58
2021/03/16 04:08:30;;;;;;;1.50;0.40;;;5.10;99.90;;;;;;5073890;28;20511;-58
2021/03/16 04:10:59;;;;;;;2.00;0.40;;;5.10;99.90;;;;;;5073667;28;20423;-58
2021/03/16 04:13:25;;;;;;;0.85;0.40;;;5.20;99.90;;;;;;5074138;28;20720;-58
2021/03/16 04:15:52;;;;;;;1.50;0.40;;;5.20;99.90;;;;;;5074278;28;20425;-58
2021/03/16 04:18:19;;;;;;;0.70;0.30;;;5.00;99.90;;;;;;5074331;28;20423;-58
2021/03/16 04:20:46;;;;;;;0.80;0.40;;;4.80;99.90;;;;;;5074543;28;20438;-59
2021/03/16 04:23:13;;;;;;;0.73;0.30;;;4.80;99.90;;;;;;5073915;28;20419;-59
2021/03/16 04:25:39;;;;;;;0.90;0.40;;;4.90;99.90;;;;;;5074484;28;20427;-58
2021/03/16 04:28:06;;;;;;;0.70;0.30;;;5.00;99.90;;;;;;5074356;28;20514;-59
2021/03/16 04:30:33;;;;;;;0.50;0.30;;;5.10;99.90;;;;;;5075076;28;20722;-59
2021/03/16 04:32:59;;;;;;;0.60;0.30;;;5.20;99.90;;;;;;5077717;28;20419;-59
2021/03/16 04:35:26;;;;;;;1.00;0.30;;;5.10;99.90;;;;;;5077699;28;20423;-59
2021/03/16 04:37:52;;;;;;;0.60;0.30;;;5.10;99.90;;;;;;5077563;28;20502;-59
2021/03/16 04:40:20;;;;;;;0.90;0.30;;;5.10;99.90;;;;;;5077705;28;20441;-59
2021/03/16 04:42:46;;;;;;;1.60;0.30;;;5.20;99.90;;;;;;5077373;28;20446;-59
2021/03/16 04:45:15;;;;;;;1.15;0.38;;;5.10;99.90;;;;;;5077431;28;20488;-59
2021/03/16 04:47:42;;;;;;;1.00;0.40;;;5.00;99.90;;;;;;5077109;28;20423;-58
2021/03/16 04:50:09;;;;;;;0.80;0.30;;;5.10;99.90;;;;;;5077017;28;20463;-59
2021/03/16 04:52:36;;;;;;;2.60;0.40;;;5.10;99.90;;;;;;5077012;28;20716;-58
2021/03/16 04:55:02;;;;;;;0.50;0.30;;;5.10;99.90;;;;;;5076458;28;20449;-59
2021/03/16 04:57:29;;;;;;;2.53;0.40;;;5.10;99.90;;;;;;5075434;28;20441;-58
2021/03/16 04:59:55;;;;;;;1.30;0.30;;;4.90;99.90;;;;;;5076304;28;20435;-59
2021/03/16 05:02:22;;;;;;;1.90;0.30;;;4.90;99.90;;;;;;5076767;28;20424;-59
2021/03/16 05:04:49;;;;;;;1.50;0.40;;;4.80;99.90;;;;;;5077104;28;20514;-59
2021/03/16 05:07:15;;;;;;;1.30;0.30;;;4.90;99.90;;;;;;5076611;28;20499;-59
2021/03/16 05:09:42;;;;;;;1.23;0.30;;;4.90;99.90;;;;;;5077104;28;20557;-59
2021/03/16 05:12:09;;;;;;;1.80;0.30;;;4.90;99.90;;;;;;5076446;28;20423;-59
2021/03/16 05:14:36;;;;;;;1.07;0.30;;;4.90;99.90;;;;;;5076155;28;20633;-60
2021/03/16 05:17:02;;;;;;;1.15;0.30;;;4.90;99.90;;;;;;5076718;28;20419;-57
2021/03/16 05:19:29;;;;;;;0.70;0.40;;;5.00;99.90;;;;;;5076666;28;20441;-58
2021/03/16 05:21:56;;;;;;;0.70;0.30;;;4.80;99.90;;;;;;5076940;28;20425;-59
2021/03/16 05:24:22;;;;;;;1.13;0.30;;;4.90;99.90;;;;;;5076411;28;20427;-58
2021/03/16 05:26:48;;;;;;;0.50;0.30;;;5.00;99.90;;;;;;5076463;28;20420;-57
2021/03/16 05:29:15;;;;;;;1.08;0.30;;;5.10;99.90;;;;;;5077082;28;20506;-58
2021/03/16 05:31:42;;;;;;;1.40;0.33;;;5.20;99.90;;;;;;5076383;28;20458;-58
2021/03/16 05:34:08;;;;;;;0.73;0.40;;;5.20;99.90;;;;;;5075193;28;20431;-59
2021/03/16 05:36:36;;;;;;;1.60;0.40;;;5.20;99.90;;;;;;5074478;28;20419;-60
2021/03/16 05:39:02;;;;;;;1.40;0.40;;;5.20;99.90;;;;;;5074042;28;20442;-60
2021/03/16 05:41:30;;;;;;;1.90;0.30;;;5.00;99.90;;;;;;5073557;28;20476;-60
2021/03/16 05:44:00;;;;;;;1.30;0.40;;;5.00;99.90;;;;;;5072474;28;20634;-60
2021/03/16 05:46:27;;;;;;;2.50;0.40;;;5.00;99.90;;;;;;5072028;28;20419;-59
2021/03/16 05:48:55;;;;;;;2.08;0.40;;;5.00;99.90;;;;;;5072565;28;20415;-60
2021/03/16 05:51:22;;;;;;;1.35;0.40;;;5.00;99.90;;;;;;5072526;28;20443;-60
2021/03/16 05:53:51;;;;;;;0.90;0.30;;;4.90;99.90;;;;;;5074176;28;20626;-60
2021/03/16 05:56:18;;;;;;;2.05;0.40;;;5.00;99.90;;;;;;5074702;28;20549;-62
2021/03/16 05:58:44;;;;;;;1.30;0.30;;;4.90;99.90;;;;;;5075113;28;20550;-59
2021/03/16 06:01:13;;;;;;;1.10;0.40;;;5.10;99.90;;;;;;5073346;28;20420;-59
2021/03/16 06:03:39;;;;;;;0.52;0.20;;;5.40;99.90;;;;;;5072332;28;20428;-59
2021/03/16 06:06:07;;;;;;;0.70;0.30;;;5.70;99.90;;;;;;5072506;28;20846;-59
2021/03/16 06:08:34;;;;;;;0.80;0.30;;;5.80;99.90;;;;;;5070847;28;20424;-59
2021/03/16 06:11:01;;;;;;;0.60;0.30;;;6.10;99.90;;;;;;5061799;28;20458;-59
2021/03/16 06:13:28;;;;;;;0.80;0.30;;;6.10;99.90;;;;;;5055034;28;20421;-59
2021/03/16 06:15:54;;;;;;;1.40;0.40;;;5.70;99.90;;;;;;5070340;28;20427;-58
2021/03/16 06:18:25;;;;;;;2.60;0.40;;;5.70;99.90;;;;;;5072395;28;20424;-57
2021/03/16 06:20:58;;;;;;;1.02;0.40;;;5.60;99.90;;;;;;5064342;28;20508;-58
2021/03/16 06:23:30;;;;;;;1.20;0.40;;;5.50;99.90;;;;;;5072249;28;20986;-58
2021/03/16 06:25:57;;;;;;;1.05;0.40;;;5.40;99.90;;;;;;5072047;28;20423;-58
2021/03/16 06:28:31;;;;;;;2.60;0.40;;;5.40;99.90;;;;;;5065100;28;20424;-59
2021/03/16 06:30:58;;;;;;;3.00;0.40;;;5.60;99.90;;;;;;5071441;28;20435;-59
2021/03/16 06:33:26;;;;;;;1.50;0.40;;;5.80;99.90;;;;;;5056669;28;20434;-59
2021/03/16 06:35:57;;;;;;;0.95;0.35;;;5.80;99.90;;;;;;5071787;28;20427;-58
2021/03/16 06:38:24;;;;;;;0.70;0.40;;;6.00;99.90;;;;;;5052328;28;20448;-59
2021/03/16 06:40:51;;;;;;;0.60;0.30;;;5.90;99.90;;;;;;5065974;28;20877;-59
2021/03/16 06:43:22;;;;;;;1.00;0.40;;;5.50;99.90;;;;;;5053616;28;20519;-59
2021/03/16 06:45:52;;;;;;;2.40;0.40;;;5.60;99.90;;;;;;5066449;28;20963;-59
2021/03/16 06:48:19;;;;;;;0.70;0.40;;;5.80;99.90;;;;;;5071379;28;20431;-61
2021/03/16 06:50:47;;;;;;;1.20;0.40;;;5.90;99.90;;;;;;5071618;28;20442;-59
2021/03/16 06:53:14;;;;;;;0.97;0.40;;;6.00;99.90;;;;;;5063884;28;20545;-60
2021/03/16 06:55:51;;;;;;;1.98;0.40;;;6.10;99.90;;;;;;5072399;28;20489;-59
2021/03/16 06:58:21;;;;;;;2.10;0.40;;;6.30;99.90;;;;;;5064118;28;20485;-60
2021/03/16 07:00:47;;;;;;;1.45;0.40;;;6.30;99.90;;;;;;5056001;28;20570;-60
2021/03/16 07:03:16;;;;;;;2.40;0.40;;;6.10;99.90;;;;;;5070872;28;20423;-62
2021/03/16 07:05:44;;;;;;;2.10;0.40;;;5.90;99.90;;;;;;5052895;28;20491;-59
2021/03/16 07:08:13;;;;;;;1.20;0.40;;;6.00;99.90;;;;;;5059626;28;20510;-60
2021/03/16 07:10:41;;;;;;;1.50;0.30;;;5.70;99.90;;;;;;5059847;28;20440;-59
2021/03/16 07:13:11;;;;;;;0.70;0.40;;;5.70;99.90;;;;;;5062378;28;21083;-60
2021/03/16 07:15:40;;;;;;;1.40;0.40;;;5.80;99.90;;;;;;5059461;28;20463;-61
2021/03/16 07:18:07;;;;;;;1.70;0.40;;;6.00;99.90;;;;;;5063801;28;20426;-61
2021/03/16 07:20:36;;;;;;;1.88;0.47;;;5.80;99.90;;;;;;5062752;28;20437;-61
2021/03/16 07:23:04;;;;;;;1.65;0.40;;;5.70;99.90;;;;;;5064408;28;20453;-59
2021/03/16 07:25:30;;;;;;;2.28;0.55;;;5.70;99.90;;;;;;5059408;28;20437;-59
2021/03/16 07:27:58;;;;;;;8.60;4.22;;;5.80;99.90;;;;;;5071168;28;20424;-61
2021/03/16 07:30:26;;;;;;;1.80;0.60;;;5.90;99.90;;;;;;5062329;28;20524;-62
2021/03/16 07:32:53;;;;;;;2.03;0.77;;;5.70;99.90;;;;;;5062233;28;20502;-62
2021/03/16 07:35:20;;;;;;;1.90;0.60;;;5.40;99.90;;;;;;5067044;28;20430;-62
2021/03/16 07:37:48;;;;;;;0.90;0.40;;;5.60;99.90;;;;;;5064653;28;20447;-61
2021/03/16 07:40:16;;;;;;;1.10;0.50;;;5.50;99.90;;;;;;5052984;28;20434;-61
2021/03/16 07:42:42;;;;;;;0.90;0.40;;;5.60;99.90;;;;;;5060892;28;20429;-62
2021/03/16 07:45:10;;;;;;;3.17;0.50;;;5.70;99.90;;;;;;5052795;28;20536;-62
2021/03/16 07:47:37;;;;;;;3.30;0.50;;;6.00;99.90;;;;;;5056523;28;20528;-62
2021/03/16 07:50:06;;;;;;;1.30;0.30;;;6.00;99.90;;;;;;5060891;28;20438;-62
2021/03/16 07:52:43;;;;;;;0.80;0.38;;;6.00;99.90;;;;;;5069853;28;20423;-63
2021/03/16 07:55:11;;;;;;;2.13;0.50;;;6.00;99.90;;;;;;5050450;28;20440;-62
2021/03/16 07:57:38;;;;;;;1.10;0.40;;;5.80;99.90;;;;;;5053013;28;20416;-62
2021/03/16 08:00:07;;;;;;;2.00;0.40;;;6.00;99.90;;;;;;5054088;28;20468;-62
2021/03/16 08:02:35;;;;;;;1.10;0.40;;;6.00;99.90;;;;;;5050874;28;20484;-62
2021/03/16 08:05:14;;;;;;;0.80;0.40;;;6.00;99.90;;;;;;5058514;28;20436;-62
2021/03/16 08:07:40;;;;;;;0.90;0.32;;;6.20;99.90;;;;;;5072535;28;20561;-62
2021/03/16 08:10:08;;;;;;;2.40;0.40;;;5.90;99.90;;;;;;5074030;28;21082;-62
2021/03/16 08:12:35;;;;;;;2.63;0.40;;;6.10;99.90;;;;;;5074083;28;20482;-63
2021/03/16 08:15:11;;;;;;;1.30;0.40;;;6.00;99.90;;;;;;5075345;28;20903;-62
2021/03/16 08:17:37;;;;;;;1.30;0.40;;;6.50;99.90;;;;;;5064413;28;20850;-63
2021/03/16 08:20:06;;;;;;;1.40;0.60;;;6.60;99.90;;;;;;5074566;28;20435;-63
2021/03/16 08:22:33;;;;;;;1.50;0.40;;;6.90;99.90;;;;;;5073282;28;20419;-65
2021/03/16 08:25:01;;;;;;;1.40;0.40;;;7.00;99.90;;;;;;5068174;28;20624;-63
2021/03/16 08:27:28;;;;;;;2.20;0.40;;;6.80;99.90;;;;;;5055737;28;20436;-63
2021/03/16 08:29:56;;;;;;;1.55;0.40;;;6.90;99.90;;;;;;5065607;28;20433;-63
2021/03/16 08:32:23;;;;;;;7.50;3.03;;;6.90;99.90;;;;;;5055680;28;20903;-62
2021/03/16 08:34:51;;;;;;;7.95;2.03;;;6.90;99.90;;;;;;5073752;28;20431;-62
2021/03/16 08:37:22;;;;;;;1.17;0.60;;;7.00;99.90;;;;;;5063041;28;20424;-61
2021/03/16 08:39:52;;;;;;;1.13;0.63;;;6.70;99.90;;;;;;5060079;28;20897;-61
2021/03/16 08:42:19;;;;;;;1.60;0.60;;;6.70;99.90;;;;;;5056983;28;20527;-61
2021/03/16 08:44:47;;;;;;;1.65;0.40;;;6.80;99.90;;;;;;5052456;28;20439;-61
2021/03/16 08:47:16;;;;;;;1.20;0.50;;;7.10;99.90;;;;;;5070225;28;20520;-60
2021/03/16 08:49:44;;;;;;;1.40;0.40;;;7.10;99.90;;;;;;5066880;28;20563;-60
2021/03/16 08:52:21;;;;;;;0.90;0.50;;;7.20;99.90;;;;;;5065600;28;20423;-59
2021/03/16 08:54:48;;;;;;;1.30;0.50;;;7.50;99.90;;;;;;5054533;28;20526;-59
2021/03/16 08:57:20;;;;;;;0.98;0.40;;;7.60;99.90;;;;;;5060452;28;20428;-59
2021/03/16 08:59:47;;;;;;;1.60;0.40;;;7.50;99.90;;;;;;5072791;28;20439;-59
2021/03/16 09:02:19;;;;;;;0.73;0.70;;;7.20;99.90;;;;;;5072452;28;20843;-58
2021/03/16 09:04:46;;;;;;;1.80;0.50;;;6.80;99.90;;;;;;5072324;28;20435;-59
2021/03/16 09:07:21;;;;;;;1.60;0.60;;;6.80;99.90;;;;;;5072212;28;20523;-59
2021/03/16 09:09:47;;;;;;;1.35;0.50;;;6.70;99.90;;;;;;5060848;28;20698;-59
2021/03/16 09:12:25;;;;;;;1.30;0.57;;;6.40;99.90;;;;;;5073722;28;20527;-59
2021/03/16 09:14:51;;;;;;;2.30;0.50;;;6.60;99.90;;;;;;5062635;28;20921;-59
2021/03/16 09:17:19;;;;;;;1.90;0.43;;;6.70;99.90;;;;;;5064499;28;20866;-60
2021/03/16 09:19:46;;;;;;;3.20;0.50;;;6.70;99.90;;;;;;5059665;28;20430;-59
2021/03/16 09:22:15;;;;;;;1.40;0.57;;;6.60;99.90;;;;;;5075619;28;20863;-59
2021/03/16 09:24:43;;;;;;;2.33;0.50;;;6.60;99.90;;;;;;5073258;28;20477;-58
2021/03/16 09:27:10;;;;;;;2.63;0.50;;;6.70;99.90;;;;;;5068399;28;20434;-59
2021/03/16 09:29:38;;;;;;;1.23;0.50;;;6.70;99.90;;;;;;5064511;28;20530;-59
2021/03/16 09:32:07;;;;;;;1.30;0.60;;;6.70;99.90;;;;;;5053431;28;20417;-59
2021/03/16 09:34:43;;;;;;;1.83;0.50;;;6.80;99.90;;;;;;5055932;28;20803;-59
2021/03/16 09:37:11;;;;;;;1.20;0.60;;;6.90;99.90;;;;;;5066235;28;20431;-59
2021/03/16 09:39:38;;;;;;;2.20;0.50;;;7.10;99.90;;;;;;5067848;28;20534;-59
2021/03/16 09:42:07;;;;;;;1.85;0.50;;;7.20;99.90;;;;;;5074798;28;20884;-59
2021/03/16 09:44:34;;;;;;;1.50;0.50;;;6.80;99.90;;;;;;5064629;28;20444;-59
2021/03/16 09:47:02;;;;;;;1.60;0.50;;;6.70;99.90;;;;;;5063006;28;20693;-59
2021/03/16 09:49:31;;;;;;;0.90;0.43;;;6.40;99.90;;;;;;5064861;28;20436;-60
2021/03/16 09:52:06;;;;;;;1.45;0.60;;;6.10;99.90;;;;;;5057125;28;20528;-59
2021/03/16 09:54:37;;;;;;;10.57;3.88;;;6.40;99.90;;;;;;5055732;28;20729;-59
2021/03/16 09:57:09;;;;;;;10.95;5.93;;;6.40;99.90;;;;;;5053476;28;20940;-58
2021/03/16 09:59:36;;;;;;;1.25;0.60;;;6.50;99.90;;;;;;5065608;28;20910;-59
2021/03/16 10:02:04;;;;;;;1.25;0.68;;;6.30;99.90;;;;;;5063689;28;20862;-59
2021/03/16 10:04:42;;;;;;;1.52;0.60;;;6.50;99.90;;;;;;5063553;28;20440;-59
2021/03/16 10:07:09;;;;;;;1.03;0.57;;;6.70;99.90;;;;;;5069941;28;20572;-59
2021/03/16 10:09:42;;;;;;;1.05;0.60;;;6.40;99.90;;;;;;5064663;28;20432;-59
2021/03/16 10:12:19;;;;;;;2.60;0.70;;;6.00;99.90;;;;;;5057118;28;20421;-57
2021/03/16 10:14:56;;;;;;;1.30;0.60;;;6.00;99.90;;;;;;5060520;28;22261;-59
2021/03/16 10:17:26;;;;;;;1.50;0.60;;;6.20;99.90;;;;;;5065611;28;20434;-59
2021/03/16 10:19:53;;;;;;;1.70;0.60;;;6.50;99.90;;;;;;5062353;28;20460;-57
2021/03/16 10:22:28;;;;;;;1.83;0.70;;;6.70;99.90;;;;;;5064707;28;20775;-58
2021/03/16 10:24:56;;;;;;;0.82;0.60;;;6.50;99.90;;;;;;5061290;28;20540;-58
2021/03/16 10:27:30;;;;;;;1.10;0.50;;;6.80;99.90;;;;;;5062319;28;20486;-58
2021/03/16 10:29:57;;;;;;;1.17;0.60;;;7.20;99.90;;;;;;5059703;28;20923;-58
2021/03/16 10:32:23;;;;;;;1.60;0.60;;;7.40;99.90;;;;;;5067634;28;20914;-58
2021/03/16 10:34:50;;;;;;;2.40;0.60;;;7.50;99.90;;;;;;5060964;28;20937;-58
2021/03/16 10:37:18;;;;;;;0.95;0.60;;;7.70;99.90;;;;;;5062890;28;20419;-58
2021/03/16 10:39:46;;;;;;;2.63;0.60;;;7.80;99.90;;;;;;5057333;28;20530;-59
2021/03/16 10:42:13;;;;;;;2.17;0.70;;;7.80;99.90;;;;;;5065573;28;20563;-59
2021/03/16 10:44:39;;;;;;;1.10;0.70;;;7.60;99.90;;;;;;5064063;28;20455;-59
2021/03/16 10:47:06;;;;;;;2.60;0.60;;;7.50;99.90;;;;;;5063665;28;20471;-59
2021/03/16 10:49:33;;;;;;;1.70;0.60;;;7.50;99.90;;;;;;5061490;28;20925;-59
2021/03/16 10:51:59;;;;;;;1.15;0.60;;;7.50;99.90;;;;;;5059493;28;20520;-59
2021/03/16 10:54:26;;;;;;;1.23;0.60;;;7.90;99.90;;;;;;5059101;28;20433;-59
2021/03/16 10:56:56;;;;;;;0.80;0.50;;;8.20;99.90;;;;;;5064051;28;20429;-58
2021/03/16 10:59:24;;;;;;;1.40;0.60;;;8.40;99.90;;;;;;5055830;28;20434;-59
2021/03/16 11:01:52;;;;;;;2.20;0.60;;;8.40;99.90;;;;;;5061505;28;20893;-58
2021/03/16 11:04:19;;;;;;;1.60;0.60;;;8.30;99.90;;;;;;5061394;28;20465;-58
2021/03/16 11:06:45;;;;;;;2.40;0.60;;;7.80;99.90;;;;;;5059091;28;20464;-61
2021/03/16 11:09:12;;;;;;;3.47;0.60;;;7.90;99.90;;;;;;5055972;28;20854;-59
2021/03/16 11:11:39;;;;;;;3.40;0.60;;;8.20;99.90;;;;;;5071595;28;20738;-59
2021/03/16 11:14:07;;;;;;;2.45;0.50;;;8.20;99.90;;;;;;5063535;28;20857;-59
2021/03/16 11:16:33;;;;;;;0.80;0.50;;;8.30;99.90;;;;;;5059465;28;20438;-58
2021/03/16 11:19:00;;;;;;;1.60;0.50;;;8.20;99.90;;;;;;5068818;28;20519;-58
2021/03/16 11:21:27;;;;;;;2.85;0.60;;;8.20;99.90;;;;;;5069313;28;20502;-58
2021/03/16 11:23:53;;;;;;;1.02;0.50;;;8.20;99.90;;;;;;5058823;28;20496;-57
2021/03/16 11:26:21;;;;;;;1.60;0.60;;;8.30;99.90;;;;;;5061356;28;20615;-58
2021/03/16 11:28:47;;;;;;;1.80;0.60;;;8.10;99.90;;;;;;5053942;28;20439;-59
2021/03/16 11:31:15;;;;;;;0.98;0.40;;;8.00;99.90;;;;;;5053993;28;20460;-60
2021/03/16 11:33:43;;;;;;;0.73;0.50;;;7.70;99.90;;;;;;5053301;28;20848;-56
2021/03/16 11:36:09;;;;;;;2.30;0.50;;;7.70;99.90;;;;;;5044353;28;20535;-57
2021/03/16 11:38:36;;;;;;;1.33;0.50;;;7.70;99.90;;;;;;5061325;28;20855;-57
2021/03/16 11:41:03;;;;;;;6.50;2.70;;;7.50;99.90;;;;;;5061938;28;20918;-58
2021/03/16 11:43:32;;;;;;;2.40;0.90;;;7.40;99.90;;;;;;5062894;28;20479;-58
2021/03/16 11:45:58;;;;;;;2.88;0.60;;;7.30;99.90;;;;;;5063400;28;20423;-58
2021/03/16 11:48:25;;;;;;;0.88;0.50;;;7.40;99.90;;;;;;5054783;28;20431;-58
2021/03/16 11:50:52;;;;;;;1.08;0.50;;;7.40;99.90;;;;;;5053967;28;20718;-58
2021/03/16 11:53:18;;;;;;;2.50;0.50;;;7.30;99.90;;;;;;5058946;28;20510;-59
2021/03/16 11:55:45;;;;;;;1.80;0.40;;;7.30;99.90;;;;;;5071953;28;20477;-59
2021/03/16 11:58:11;;;;;;;1.30;0.40;;;7.40;99.90;;;;;;5075059;28;20423;-59
2021/03/16 12:00:37;;;;;;;1.85;0.40;;;7.20;99.90;;;;;;5070514;28;20453;-58
2021/03/16 12:03:05;;;;;;;1.90;0.40;;;7.30;99.90;;;;;;5069701;28;20467;-58
2021/03/16 12:05:32;;;;;;;1.85;0.40;;;7.00;99.90;;;;;;5065566;28;20486;-58
2021/03/16 12:08:02;;;;;;;0.90;0.50;;;7.10;99.90;;;;;;5071858;28;20459;-59
2021/03/16 12:10:32;;;;;;;2.90;0.50;;;7.50;99.90;;;;;;5071517;28;21205;-58
2021/03/16 12:12:58;;;;;;;1.70;0.40;;;7.90;99.90;;;;;;5062382;28;20425;-58
2021/03/16 12:15:24;;;;;;;1.65;0.50;;;7.90;99.90;;;;;;5067012;28;20441;-58
2021/03/16 12:17:51;;;;;;;1.13;0.40;;;8.10;99.90;;;;;;5059154;28;20481;-56
2021/03/16 12:20:18;;;;;;;1.83;0.40;;;8.40;99.90;;;;;;5066809;28;20527;-58
2021/03/16 12:22:45;;;;;;;2.47;0.40;;;8.30;99.90;;;;;;5065820;28;20423;-59
2021/03/16 12:25:13;;;;;;;0.63;0.40;;;8.50;99.90;;;;;;5061683;28;20497;-58
2021/03/16 12:27:40;;;;;;;1.50;0.40;;;8.70;99.90;;;;;;5066708;28;20455;-59
2021/03/16 12:30:08;;;;;;;0.80;0.40;;;8.90;99.90;;;;;;5059076;28;20427;-61
2021/03/16 12:32:38;;;;;;;0.80;0.40;;;9.10;99.90;;;;;;5073817;28;20781;-59
2021/03/16 12:35:08;;;;;;;0.82;0.40;;;8.80;99.90;;;;;;5075296;28;20998;-60
2021/03/16 12:37:34;;;;;;;3.00;0.60;;;8.90;99.90;;;;;;5063124;28;20838;-59
2021/03/16 12:40:03;;;;;;;2.50;0.40;;;8.80;99.90;;;;;;5067269;28;20526;-59
2021/03/16 12:42:30;;;;;;;1.10;0.50;;;8.30;99.90;;;;;;5063017;28;20520;-59
2021/03/16 12:44:56;;;;;;;1.50;0.40;;;8.10;99.90;;;;;;5070522;28;20694;-60
2021/03/16 12:47:23;;;;;;;0.70;0.40;;;8.10;99.90;;;;;;5054668;28;20417;-59
2021/03/16 12:49:50;;;;;;;1.80;0.40;;;8.30;99.90;;;;;;5071638;28;20431;-58
2021/03/16 12:52:17;;;;;;;1.60;0.53;;;8.40;99.90;;;;;;5057815;28;20519;-59
2021/03/16 12:54:43;;;;;;;1.48;0.50;;;8.50;99.90;;;;;;5072038;28;20430;-59
2021/03/16 12:57:11;;;;;;;1.00;0.30;;;8.20;99.90;;;;;;5066754;28;20429;-58
2021/03/16 12:59:37;;;;;;;1.38;0.47;;;8.20;99.90;;;;;;5059818;28;20510;-59
2021/03/16 13:02:04;;;;;;;1.58;0.40;;;8.40;99.90;;;;;;5062487;28;20470;-59